默认 日期 大小 文件数 浏览量 最新下载 xml
print磁力链接相关资源由用户搜索指令自动获取,结果来源于网络,本站不存储任何资料,亦不承担任何责任,请于24小时内删除,搜索到6200个磁力,显示前4000条数据,用时4ms。
    ... Guide {Graphicriverr }.pdf": 2629705, "Paper print Photoshop action.atn": 14774}
创建时间: 2018-12-05 05:11:22 大小:33.09 MB 文件数量:10 热度:5 最近下载:2023-04-21 19:10:03
    {"Readme.inf": 464, "www.FENOPY.se.jpg": 83744, "Directory List & Print Pro 5.41 Pre-Cracked.exe": 14061854, "Directory List & Print Pro 5.41 Pre-Cracked.nfo": 888, "Torrent downloaded from extremlymtorrents.me.txt": 40}
创建时间: 2018-12-05 07:50:38 大小:13.49 MB 文件数量:5 热度:8 最近下载:2023-04-21 20:10:04
    {"Read_Me.txt": 132, "DLPP3P.v1.6.zip": 32892154, "Visit babupc.com.url": 117, "DirectoryListPrintEN.zip": 16587485, "Downloaded from BabuPC.com.txt": 1960, "DirectoryListPrintPortableEN.zip": 17514873}
创建时间: 2018-12-05 07:52:31 大小:63.89 MB 文件数量:6 热度:8 最近下载:2023-04-21 20:10:06
    ... a hybrid screen and a print document.mp4": 6118961}}
创建时间: 2018-12-05 10:04:02 大小:344.66 MB 文件数量:21 热度:10 最近下载:2025-05-26 18:18:02
    {"brd.nfo": 13950, "file_id.diz": 501, "brdc342a.zip": 2932616, "brdc342b.zip": 2932617, "brdc342c.zip": 95055}
创建时间: 2018-12-05 11:29:30 大小:5.7 MB 文件数量:5 热度:7 最近下载:2025-06-18 12:29:01
    ... ": 749429}, "Silwa Teenager 15 (re-print)": {"0001.jpg": 948693, "0002.jpg ...
创建时间: 2018-12-05 12:57:04 大小:212.13 MB 文件数量:196 热度:13 最近下载:2025-09-20 07:02:29
    {"Readme.inf": 464, "www.FENOPY.se.jpg": 83744, "Directory List & Print Pro 5.41 Pre-Cracked.exe": 14061854, "Directory List & Print Pro 5.41 Pre-Cracked.nfo": 888, "Torrent downloaded from extremlymtorrents.me.txt": 40}
创建时间: 2018-12-05 13:06:27 大小:13.49 MB 文件数量:5 热度:7 最近下载:2023-04-22 00:10:07
    ... a hybrid screen and a print document.mp4": 6118961}, "Downloaded From ...
创建时间: 2018-12-06 00:55:04 大小:344.66 MB 文件数量:22 热度:10 最近下载:2025-06-13 21:45:01
    ... 65365739, "3.4. Flatten for Print.mp4": 32788828, "3.5. ... Your File for Print.mp4": 70675542}, "04 - Print Settings for Desktop ... .mp4": 103721457, "4.2. Print Marks.mp4": 31343988, "4.3 ... ": 22793387, "4.1. The Print Settings Dialogue Box.mp4": 124220244}}
创建时间: 2018-12-06 02:24:36 大小:948.35 MB 文件数量:20 热度:11 最近下载:2025-09-20 05:23:04
    ... Industrial.Press.Machinerys.Handbook.Large.Print.30th.Edition.083113092X_jp2.zip": ... Industrial.Press.Machinerys.Handbook.Large.Print.30th.Edition.083113092X_abbyy.gz": ... Industrial.Press.Machinerys.Handbook.Large.Print.30th.Edition.083113092X_scandata.xml": ...
创建时间: 2018-12-06 03:06:32 大小:1.61 GB 文件数量:8 热度:12 最近下载:2025-09-19 04:32:08
    {"Read_Me.txt": 132, "DLPP3P.v1.6.zip": 17099522, "Visit babupc.com.url": 117, "DirectoryListPrintEN.zip": 794853, "Downloaded from BabuPC.com.txt": 1960, "DirectoryListPrintPortableEN.zip": 17514849}
创建时间: 2018-12-06 04:47:25 大小:33.77 MB 文件数量:6 热度:7 最近下载:2023-04-22 07:10:05
    {"Traction Software Batch and Print Pro 7.05 (x86-x64)+Serial~~.rar": 53069911}
创建时间: 2018-12-06 17:27:58 大小:50.61 MB 文件数量:1 热度:6 最近下载:2023-04-22 09:50:20
    {"08 Conclusion": {"08_01-WrappingUp.mp4": 5285841}, "00 Introduction": {"00_01-Welcome.mp4": 12997846, "00_02-WhatToKnow.mp4": 1342011, "00_03-Exercise_Files.mp4": 1056835}, "04 Foil Stamping": {"04_05-FoilArt.mp4": 5280917, "04_02-FoilBasics.mp4": ...
创建时间: 2018-12-06 23:22:56 大小:301.57 MB 文件数量:31 热度:11 最近下载:2025-08-03 09:08:02
    {"Paper Folding Templates for Print Design.pdf": 6926537}
创建时间: 2018-12-07 01:44:30 大小:6.61 MB 文件数量:1 热度:9 最近下载:2025-08-06 20:42:07
    ... .WINDOWS-SSQ.7z": 954769, "Advanced Print Publisher Win32 11.1-SSQ ... .WINDOWS-SSQ.7z": 954769, "Advanced Print Publisher Win64 11.1-SSQ ...
创建时间: 2018-12-07 02:34:43 大小:425.43 MB 文件数量:11 热度:12 最近下载:2025-02-14 03:55:02
    {"Keygen.zip": 6302827, "DLPP3P.v1.6.zip": 6317849, "Visit SnowFiles.com.url": 110, "Visit CracksMind.com.url": 113, "Downloaded from CracksMind.Com.txt": 2178, "Visit TutsGalaxy.com for tutorials & free courses.url": 113}
创建时间: 2018-12-07 02:46:28 大小:12.04 MB 文件数量:6 热度:8 最近下载:2023-04-22 13:50:02
    {"Covers": {"Never So Few (1959) - disc.jpg": 138088, "Never So Few (1959) - front.jpg": 332665}, "VIDEO_TS": {"VIDEO_TS.BUP": 8192, "VIDEO_TS.IFO": 8192, "VTS_01_0.BUP": 92160, "VTS_01_0.IFO": 92160, "VTS_01_0.VOB": 49258496, "VTS_01_1.VOB": 1073739776, " ...
创建时间: 2018-12-07 20:05:57 大小:4.36 GB 文件数量:15 热度:11 最近下载:2025-01-12 22:39:03
    {"robot 2.jpg": 10107, "Read this (Important).txt": 91, "Visit Our Site www.Moviesjug.net Click Here.url": 112, "Robot 2.0 2018 Hindi (Best Print) [Moviesjug.net] Pre-DvdRip 720p 1.4 GB.mkv": 1546169766}
创建时间: 2018-12-08 05:46:32 大小:1.44 GB 文件数量:4 热度:6 最近下载:2024-06-03 05:39:02
    {"CodecSetup": {"readme.txt": 362, "CodecSetup-PC.z": 28627, "CodecSetup-MAC.z": 2941685}, "readme.txt": 362, "Johnny English Strikes Again 2018 720p HD Print.avi": 1444258200}
创建时间: 2018-12-08 08:31:54 大小:1.35 GB 文件数量:5 热度:5 最近下载:2022-04-23 06:11:09
    {"Keygen.zip": 927997, "DLPP3P.v1.6.zip": 943019, "Visit SnowFiles.com.url": 110, "Visit CracksMind.com.url": 113, "Downloaded from CracksMind.Com.txt": 2178, "Visit TutsGalaxy.com for tutorials & free courses.url": 113}
创建时间: 2018-12-08 08:48:59 大小:1.79 MB 文件数量:6 热度:6 最近下载:2022-04-23 07:00:58